Terminal Aerodrome Forecast
Issued by NWS

Home | Current Version | Previous Version | Text Only | Print | Product List | Glossary On
Versions: 1 2 3 4 5 6 7 8 9 10 11 12 13 14 15 16 17
000
FTUS43 KMQT 241120
TAFIWD
TAF
KIWD 241120Z 2412/2512 18009KT P6SM FEW250
     FM241900 20011G18KT P6SM FEW200
     FM250600 19011KT P6SM FEW200 WS010/20040KT
     FM251000 21007KT P6SM SCT130=

USA.gov is the U.S. government's official web portal to all federal, state and local government web resources and services.